createdAt,value
2023-03-28T00:02:00.306Z,56.47
2023-03-28T00:04:26.418Z,56.62
2023-03-28T00:06:55.583Z,56.75
2023-03-28T00:08:05.861Z,56.81
2023-03-28T00:10:30.967Z,56.95
2023-03-28T00:11:40.161Z,56.88
2023-03-28T00:14:04.748Z,57.00
2023-03-28T00:15:13.425Z,57.03
2023-03-28T00:17:37.724Z,57.12
2023-03-28T00:18:47.414Z,57.22
2023-03-28T00:19:57.994Z,57.22
2023-03-28T00:21:20.201Z,57.25
2023-03-28T00:23:46.847Z,57.37
2023-03-28T00:24:58.983Z,57.44
2023-03-28T00:27:44.656Z,57.45
2023-03-28T00:28:54.852Z,57.52
2023-03-28T00:31:41.084Z,57.58
2023-03-28T00:34:07.714Z,57.61
2023-03-28T00:36:35.719Z,57.68
2023-03-28T00:39:05.813Z,57.71
2023-03-28T00:41:35.845Z,57.79
2023-03-28T00:42:45.907Z,57.81
2023-03-28T00:45:12.054Z,57.95
2023-03-28T00:47:58.722Z,58.23
2023-03-28T00:50:37.183Z,58.31
2023-03-28T00:51:50.794Z,58.37
2023-03-28T00:54:22.216Z,58.46
2023-03-28T00:55:39.368Z,58.49
2023-03-28T00:58:12.628Z,58.72
2023-03-28T01:00:41.688Z,58.80
2023-03-28T01:01:52.700Z,58.80
2023-03-28T01:04:47.410Z,58.87
2023-03-28T01:05:59.015Z,58.79
2023-03-28T01:07:10.292Z,58.86
2023-03-28T01:08:23.118Z,58.99
2023-03-28T01:10:48.616Z,59.03
2023-03-28T01:13:21.010Z,59.01
2023-03-28T01:15:52.615Z,59.07
2023-03-28T01:18:22.201Z,59.15
2023-03-28T01:21:24.028Z,59.20
2023-03-28T01:24:24.113Z,59.40
2023-03-28T01:27:30.897Z,59.62
2023-03-28T01:30:28.563Z,59.61
2023-03-28T01:33:47.241Z,59.75
2023-03-28T01:36:46.964Z,59.96
2023-03-28T01:39:57.407Z,60.06
2023-03-28T01:42:57.403Z,60.19
2023-03-28T01:44:30.216Z,60.22
2023-03-28T01:45:59.123Z,60.28
2023-03-28T01:48:38.043Z,60.55
2023-03-28T01:51:27.697Z,60.85
2023-03-28T01:54:03.707Z,61.17
2023-03-28T01:56:51.580Z,61.42
2023-03-28T01:59:32.697Z,61.19
2023-03-28T02:02:14.180Z,61.27
2023-03-28T02:03:37.809Z,61.53
2023-03-28T02:05:33.648Z,61.43
2023-03-28T02:06:47.070Z,61.46
2023-03-28T02:09:19.793Z,61.56
2023-03-28T02:12:40.627Z,61.84
2023-03-28T02:13:58.215Z,61.88
2023-03-28T02:15:28.976Z,62.06
2023-03-28T02:17:01.823Z,62.20
2023-03-28T02:19:59.952Z,62.44
2023-03-28T02:22:40.901Z,62.53
2023-03-28T02:25:10.334Z,62.46
2023-03-28T02:27:15.069Z,62.59
2023-03-28T02:28:27.529Z,63.02
2023-03-28T02:29:59.776Z,63.22
2023-03-28T02:31:18.591Z,63.46
2023-03-28T02:32:28.447Z,63.46
2023-03-28T02:33:42.402Z,63.40
2023-03-28T02:36:15.573Z,63.50
2023-03-28T02:39:27.767Z,63.69
2023-03-28T02:42:11.097Z,63.83
2023-03-28T02:45:11.642Z,64.33
2023-03-28T02:48:08.094Z,63.99
2023-03-28T02:51:22.546Z,64.09
2023-03-28T02:52:52.430Z,64.12
2023-03-28T02:54:39.667Z,63.87
2023-03-28T02:58:51.472Z,64.01
2023-03-28T03:01:29.578Z,64.08
2023-03-28T03:04:01.274Z,63.62
2023-03-28T03:05:11.336Z,63.71
2023-03-28T03:06:22.132Z,63.57
2023-03-28T03:08:49.282Z,63.80
2023-03-28T03:11:16.383Z,64.01
2023-03-28T03:12:25.957Z,63.89
2023-03-28T03:14:53.452Z,63.84
2023-03-28T03:18:03.955Z,64.08
2023-03-28T03:20:34.110Z,64.07
2023-03-28T03:21:44.170Z,63.74
2023-03-28T03:24:13.927Z,63.81
2023-03-28T03:25:26.863Z,63.61
2023-03-28T03:27:19.292Z,63.67
2023-03-28T03:28:29.077Z,63.73
2023-03-28T03:29:40.092Z,63.64
2023-03-28T03:30:53.823Z,63.88
2023-03-28T03:33:18.309Z,64.06
2023-03-28T03:35:47.945Z,64.03
2023-03-28T03:38:13.524Z,63.88
2023-03-28T03:39:24.179Z,64.11
2023-03-28T03:41:49.909Z,63.90
2023-03-28T03:42:58.986Z,63.99
2023-03-28T03:45:45.694Z,63.70
2023-03-28T03:48:10.532Z,64.21
2023-03-28T03:49:19.928Z,64.26
2023-03-28T03:50:30.119Z,64.23
2023-03-28T03:51:40.170Z,64.20
2023-03-28T03:54:07.145Z,64.72
2023-03-28T03:56:34.316Z,64.45
2023-03-28T03:59:00.880Z,64.97
2023-03-28T04:01:31.987Z,64.76
2023-03-28T04:04:02.330Z,64.67
2023-03-28T04:05:13.892Z,64.61
2023-03-28T04:06:24.973Z,64.31
2023-03-28T04:07:37.148Z,64.23
2023-03-28T04:08:47.887Z,64.01
2023-03-28T04:11:13.308Z,64.29
2023-03-28T04:12:23.936Z,64.25
2023-03-28T04:14:50.165Z,64.20
2023-03-28T04:17:36.625Z,64.39
2023-03-28T04:18:53.484Z,64.40
2023-03-28T04:21:31.083Z,64.05
2023-03-28T04:22:46.108Z,64.41
2023-03-28T04:23:56.389Z,64.73
2023-03-28T04:26:29.160Z,65.34
2023-03-28T04:27:41.979Z,65.64
2023-03-28T04:28:52.724Z,65.20
2023-03-28T04:30:01.808Z,65.26
2023-03-28T04:32:48.317Z,65.11
2023-03-28T04:35:16.932Z,65.12
2023-03-28T04:37:44.975Z,65.18
2023-03-28T04:40:20.817Z,65.07
2023-03-28T04:42:50.278Z,64.43
2023-03-28T04:45:49.881Z,63.83
2023-03-28T04:47:00.818Z,63.46
2023-03-28T04:49:25.223Z,63.66
2023-03-28T04:51:51.049Z,63.72
2023-03-28T04:54:23.074Z,63.58
2023-03-28T04:57:07.803Z,63.34
2023-03-28T04:59:44.870Z,63.17
2023-03-28T05:00:55.690Z,63.18
2023-03-28T05:03:33.847Z,62.64
2023-03-28T05:06:01.566Z,63.22
2023-03-28T05:08:27.804Z,63.50
2023-03-28T05:10:56.083Z,63.21
2023-03-28T05:13:22.407Z,62.74
2023-03-28T05:15:53.179Z,62.38
2023-03-28T05:18:21.771Z,62.19
2023-03-28T05:20:51.204Z,62.24
2023-03-28T05:23:16.633Z,62.79
2023-03-28T05:25:42.653Z,62.54
2023-03-28T05:26:52.968Z,62.37
2023-03-28T05:29:19.570Z,63.03
2023-03-28T05:31:45.563Z,63.31
2023-03-28T05:33:18.377Z,63.29
2023-03-28T05:34:29.634Z,63.36
2023-03-28T05:36:58.799Z,63.36
2023-03-28T05:39:29.155Z,63.13
2023-03-28T05:42:12.869Z,63.17
2023-03-28T05:44:37.552Z,62.77
2023-03-28T05:47:52.197Z,62.59
2023-03-28T05:49:02.156Z,62.88
2023-03-28T05:51:28.072Z,62.95
2023-03-28T05:53:54.013Z,63.13
2023-03-28T05:56:25.441Z,62.48
2023-03-28T05:57:35.575Z,62.55
2023-03-28T06:00:02.199Z,62.28
2023-03-28T06:02:30.965Z,62.29
2023-03-28T06:04:58.013Z,62.40
2023-03-28T06:07:35.245Z,62.56
2023-03-28T06:08:46.371Z,62.39
2023-03-28T06:11:12.796Z,62.09
2023-03-28T06:13:48.424Z,62.16
2023-03-28T06:16:14.383Z,61.96
2023-03-28T06:18:39.311Z,62.35
2023-03-28T06:19:48.065Z,61.93
2023-03-28T06:22:14.467Z,61.57
2023-03-28T06:24:42.330Z,61.43
2023-03-28T06:25:51.131Z,61.79
2023-03-28T06:28:17.248Z,61.26
2023-03-28T06:31:34.257Z,61.20
2023-03-28T06:34:01.437Z,61.36
2023-03-28T06:36:26.628Z,62.17
2023-03-28T06:38:54.360Z,62.23
2023-03-28T06:41:22.853Z,62.13
2023-03-28T06:43:47.727Z,61.93
2023-03-28T06:45:21.654Z,61.90
2023-03-28T06:46:38.704Z,61.69
2023-03-28T06:49:07.084Z,61.92
2023-03-28T06:51:00.772Z,61.84
2023-03-28T06:52:10.408Z,61.04
2023-03-28T06:53:20.345Z,60.72
2023-03-28T06:55:45.512Z,60.70
2023-03-28T06:56:56.519Z,60.49
2023-03-28T06:58:06.153Z,60.34
2023-03-28T07:00:32.323Z,59.81
2023-03-28T07:03:16.425Z,59.70
2023-03-28T07:04:25.300Z,59.29
2023-03-28T07:05:55.699Z,59.29
2023-03-28T07:07:04.825Z,58.81
2023-03-28T07:09:31.037Z,58.56
2023-03-28T07:10:45.668Z,58.28
2023-03-28T07:13:11.353Z,57.25
2023-03-28T07:14:22.435Z,57.08
2023-03-28T07:16:46.737Z,56.97
2023-03-28T07:19:12.477Z,56.69
2023-03-28T07:21:41.636Z,56.38
2023-03-28T07:22:51.057Z,56.52
2023-03-28T07:25:16.804Z,56.33
2023-03-28T07:26:29.951Z,56.04
2023-03-28T07:28:55.793Z,55.46
2023-03-28T07:31:24.495Z,55.61
2023-03-28T07:33:50.433Z,55.28
2023-03-28T07:36:18.002Z,55.39
2023-03-28T07:38:47.229Z,55.11
2023-03-28T07:41:13.230Z,55.36
2023-03-28T07:43:40.763Z,54.69
2023-03-28T07:47:21.916Z,55.39
2023-03-28T07:48:32.841Z,54.98
2023-03-28T07:51:00.608Z,55.25
2023-03-28T07:52:11.541Z,55.47
2023-03-28T07:53:20.624Z,55.34
2023-03-28T07:55:55.216Z,55.18
2023-03-28T07:58:16.984Z,54.86
2023-03-28T08:00:44.480Z,55.57
2023-03-28T08:02:14.959Z,55.50
2023-03-28T08:03:23.868Z,54.65
2023-03-28T08:05:52.126Z,54.65
2023-03-28T08:08:25.353Z,54.90
2023-03-28T08:11:06.805Z,55.19
2023-03-28T08:13:31.392Z,56.02
2023-03-28T08:15:58.449Z,56.14
2023-03-28T08:18:26.668Z,56.21
2023-03-28T08:20:53.793Z,56.45
2023-03-28T08:23:20.201Z,56.55
2023-03-28T08:25:13.218Z,56.57
2023-03-28T08:26:23.023Z,56.71
2023-03-28T08:27:34.382Z,56.96
2023-03-28T08:30:01.164Z,56.80
2023-03-28T08:32:31.214Z,57.29
2023-03-28T08:35:07.259Z,57.49
2023-03-28T08:36:16.832Z,57.38
2023-03-28T08:37:28.518Z,57.52
2023-03-28T08:38:38.832Z,57.55
2023-03-28T08:41:24.327Z,56.81
2023-03-28T08:42:41.744Z,55.84
2023-03-28T08:43:54.464Z,55.84
2023-03-28T08:46:35.053Z,56.03
2023-03-28T08:47:49.130Z,55.94
2023-03-28T08:51:44.672Z,57.59
2023-03-28T08:55:42.604Z,59.29
2023-03-28T08:58:22.085Z,60.21
2023-03-28T09:01:01.317Z,60.79
2023-03-28T09:03:38.450Z,61.71
2023-03-28T09:04:51.790Z,61.87
2023-03-28T09:07:59.455Z,63.19
2023-03-28T09:10:53.793Z,64.38
2023-03-28T09:12:32.412Z,64.14
2023-03-28T09:15:25.470Z,64.83
2023-03-28T09:18:13.431Z,65.83
2023-03-28T09:22:31.729Z,65.93
2023-03-28T09:25:32.798Z,65.49
2023-03-28T09:27:03.620Z,65.55
2023-03-28T09:29:38.725Z,65.66
2023-03-28T09:32:25.117Z,65.45
2023-03-28T09:34:57.351Z,65.94
2023-03-28T09:37:42.515Z,66.33
2023-03-28T09:40:29.388Z,66.64
2023-03-28T09:43:37.227Z,66.96
2023-03-28T09:47:13.739Z,67.66
2023-03-28T09:50:05.674Z,68.19
2023-03-28T09:52:30.314Z,68.35
2023-03-28T09:53:39.965Z,68.63
2023-03-28T09:54:49.493Z,68.96
2023-03-28T09:57:21.084Z,69.04
2023-03-28T10:00:22.162Z,69.65
2023-03-28T10:03:00.700Z,70.11
2023-03-28T10:05:33.478Z,70.03
2023-03-28T10:06:53.724Z,70.43
2023-03-28T10:09:27.233Z,70.55
2023-03-28T10:10:41.985Z,70.24
2023-03-28T10:11:58.845Z,70.00
2023-03-28T10:13:11.407Z,69.45
2023-03-28T10:15:55.467Z,68.71
2023-03-28T10:18:45.231Z,68.52
2023-03-28T10:21:34.069Z,68.54
2023-03-28T10:23:04.723Z,68.13
2023-03-28T10:24:18.709Z,68.30
2023-03-28T10:27:15.237Z,68.85
2023-03-28T10:29:53.244Z,69.13
2023-03-28T10:32:31.851Z,69.07
2023-03-28T10:34:31.448Z,68.68
2023-03-28T10:37:28.695Z,68.10
2023-03-28T10:41:28.470Z,69.75
2023-03-28T10:45:44.837Z,71.29
2023-03-28T10:47:05.547Z,70.14
2023-03-28T10:49:48.751Z,70.25
2023-03-28T10:52:30.589Z,70.23
2023-03-28T10:55:25.617Z,69.80
2023-03-28T10:57:02.752Z,69.54
2023-03-28T10:59:39.895Z,68.61
2023-03-28T11:02:41.068Z,67.98
2023-03-28T11:05:40.759Z,68.39
2023-03-28T11:10:16.877Z,70.42
2023-03-28T11:13:06.965Z,70.67
2023-03-28T11:14:21.932Z,70.50
2023-03-28T11:17:17.184Z,70.80
2023-03-28T11:42:30.810Z,71.77
2023-03-28T11:46:49.362Z,70.83
2023-03-28T11:48:19.429Z,70.91
2023-03-28T11:51:01.817Z,70.28
2023-03-28T11:55:26.909Z,71.20
2023-03-28T12:00:00.062Z,70.92
2023-03-28T12:01:16.491Z,70.64
2023-03-28T12:04:35.105Z,69.62
2023-03-28T12:08:37.396Z,69.60
2023-03-28T12:09:50.290Z,69.54
2023-03-28T12:11:06.022Z,69.52
2023-03-28T12:15:16.589Z,70.24
2023-03-28T12:16:42.184Z,70.99
2023-03-28T12:19:21.249Z,71.97
2023-03-28T12:21:58.541Z,71.44
2023-03-28T12:24:43.543Z,70.30
2023-03-28T12:27:58.988Z,69.03
2023-03-28T12:30:37.294Z,68.09
2023-03-28T12:33:28.808Z,67.59
2023-03-28T12:36:23.828Z,67.81
2023-03-28T12:39:01.824Z,67.87
2023-03-28T12:41:44.140Z,67.87
2023-03-28T12:44:43.290Z,68.69
2023-03-28T12:45:57.292Z,69.05
2023-03-28T12:48:34.476Z,69.87
2023-03-28T12:51:09.625Z,70.51
2023-03-28T12:55:47.867Z,72.66
2023-03-28T12:58:30.129Z,72.42
2023-03-28T13:03:13.136Z,71.15
2023-03-28T13:06:02.588Z,70.80
2023-03-28T13:08:58.355Z,70.32
2023-03-28T13:11:43.253Z,70.71
2023-03-28T13:14:38.544Z,70.00
2023-03-28T13:17:33.518Z,67.34
2023-03-28T13:20:10.077Z,67.89
2023-03-28T13:23:00.913Z,68.51
2023-03-28T13:26:04.880Z,69.68
2023-03-28T13:28:48.392Z,70.64
2023-03-28T13:31:23.715Z,70.71
2023-03-28T13:34:00.531Z,71.37
2023-03-28T13:36:35.982Z,70.32
2023-03-28T13:39:22.145Z,69.42
2023-03-28T13:42:27.025Z,67.06
2023-03-28T13:45:16.591Z,68.42
2023-03-28T13:48:09.913Z,69.22
2023-03-28T13:49:11.168Z,68.83
2023-03-28T13:51:48.967Z,68.87
2023-03-28T13:54:24.863Z,68.40
2023-03-28T13:56:57.811Z,67.27
2023-03-28T13:58:14.528Z,67.07
2023-03-28T14:00:43.316Z,66.83
2023-03-28T14:01:57.505Z,66.48
2023-03-28T14:03:13.595Z,66.37
2023-03-28T14:05:53.056Z,66.77
2023-03-28T14:07:03.599Z,66.94
2023-03-28T14:09:34.818Z,66.28
2023-03-28T14:12:08.355Z,66.90
2023-03-28T14:15:59.593Z,67.39
2023-03-28T14:18:40.471Z,68.27
2023-03-28T14:21:14.857Z,69.43
2023-03-28T14:25:14.322Z,70.15
2023-03-28T14:26:27.815Z,70.21
2023-03-28T14:29:06.947Z,70.12
2023-03-28T14:30:21.595Z,70.29
2023-03-28T14:32:59.741Z,70.23
2023-03-28T14:35:43.381Z,69.77
2023-03-28T14:38:39.455Z,69.06
2023-03-28T14:41:21.810Z,69.05
2023-03-28T14:42:32.000Z,69.46
2023-03-28T14:43:41.059Z,67.98
2023-03-28T14:44:53.715Z,68.74
2023-03-28T14:47:30.114Z,67.77
2023-03-28T14:49:58.724Z,69.08
2023-03-28T14:52:35.263Z,68.09
2023-03-28T14:55:05.166Z,67.51
2023-03-28T14:56:19.729Z,67.99
2023-03-28T14:58:49.437Z,69.42
2023-03-28T15:01:23.325Z,68.71
2023-03-28T15:04:07.850Z,68.83
2023-03-28T15:06:35.436Z,68.85
2023-03-28T15:09:12.234Z,70.02
2023-03-28T15:11:42.973Z,70.06
2023-03-28T15:14:37.133Z,69.23
2023-03-28T15:15:48.303Z,69.41
2023-03-28T15:18:20.203Z,68.17
2023-03-28T15:19:38.761Z,67.93
2023-03-28T15:20:52.107Z,68.05
2023-03-28T15:23:29.129Z,68.36
2023-03-28T15:25:57.780Z,69.46
2023-03-28T15:28:27.776Z,70.29
2023-03-28T15:30:57.401Z,70.65
2023-03-28T15:33:34.411Z,70.71
2023-03-28T15:37:44.741Z,69.82
2023-03-28T15:40:27.978Z,68.41
2023-03-28T15:43:00.755Z,69.01
2023-03-28T15:45:38.806Z,70.01
2023-03-28T15:48:04.587Z,70.02
2023-03-28T15:50:33.084Z,70.67
2023-03-28T15:53:04.088Z,70.19
2023-03-28T15:54:28.121Z,69.86
2023-03-28T15:55:27.847Z,69.31
2023-03-28T15:57:57.171Z,68.76
2023-03-28T16:02:26.932Z,69.81
2023-03-28T16:05:05.330Z,70.24
2023-03-28T16:06:31.133Z,70.30
2023-03-28T16:09:00.007Z,70.71
2023-03-28T16:11:26.730Z,70.48
2023-03-28T16:12:45.433Z,70.57
2023-03-28T16:14:50.316Z,70.41
2023-03-28T16:16:22.071Z,70.03
2023-03-28T16:19:00.932Z,68.80
2023-03-28T16:21:33.600Z,68.55
2023-03-28T16:23:58.587Z,68.97
2023-03-28T16:41:48.696Z,69.57
2023-03-28T16:44:14.986Z,69.11
2023-03-28T16:46:41.580Z,68.93
2023-03-28T16:47:50.726Z,69.37
2023-03-28T16:48:59.854Z,69.62
2023-03-28T16:51:26.029Z,70.49
2023-03-28T16:53:55.976Z,71.35
2023-03-28T16:55:07.002Z,71.65
2023-03-28T16:57:33.724Z,71.56
2023-03-28T16:59:57.975Z,71.33
2023-03-28T17:02:25.679Z,70.58
2023-03-28T17:04:52.033Z,70.65
2023-03-28T17:07:19.388Z,70.61
2023-03-28T17:08:28.345Z,70.90
2023-03-28T17:10:53.708Z,70.07
2023-03-28T17:12:03.340Z,69.38
2023-03-28T17:13:14.677Z,69.27
2023-03-28T17:15:38.394Z,68.93
2023-03-28T17:18:06.085Z,70.56
2023-03-28T17:20:32.919Z,70.86
2023-03-28T17:22:57.553Z,71.26
2023-03-28T17:25:26.185Z,71.62
2023-03-28T17:26:35.348Z,70.94
2023-03-28T17:27:44.260Z,71.13
2023-03-28T17:28:55.048Z,70.85
2023-03-28T17:31:20.712Z,71.56
2023-03-28T17:32:31.057Z,71.46
2023-03-28T17:34:58.185Z,71.32
2023-03-28T17:37:38.636Z,71.23
2023-03-28T17:38:55.087Z,71.37
2023-03-28T17:41:24.196Z,71.06
2023-03-28T17:42:33.368Z,70.69
2023-03-28T17:44:58.008Z,70.62
2023-03-28T17:47:23.989Z,70.35
2023-03-28T17:48:33.681Z,69.79
2023-03-28T17:50:58.661Z,69.46
2023-03-28T17:53:26.954Z,70.50
2023-03-28T17:54:36.697Z,70.91
2023-03-28T17:57:01.321Z,71.77
2023-03-28T17:59:24.998Z,72.57
2023-03-28T18:01:50.305Z,72.76
2023-03-28T18:02:59.553Z,73.19
2023-03-28T18:05:34.232Z,72.00
2023-03-28T18:07:58.819Z,72.49
2023-03-28T18:09:09.116Z,71.93
2023-03-28T18:11:40.787Z,72.07
2023-03-28T18:12:51.827Z,71.89
2023-03-28T18:15:17.974Z,72.03
2023-03-28T18:17:44.919Z,71.80
2023-03-28T18:20:10.979Z,71.85
2023-03-28T18:22:37.174Z,72.02
2023-03-28T18:23:47.796Z,71.54
2023-03-28T18:24:56.407Z,71.24
2023-03-28T18:27:22.904Z,71.57
2023-03-28T18:28:34.938Z,71.56
2023-03-28T18:29:43.664Z,71.58
2023-03-28T18:30:54.036Z,71.64
2023-03-28T18:33:19.506Z,71.03
2023-03-28T18:34:29.298Z,72.74
2023-03-28T18:35:39.469Z,72.89
2023-03-28T18:36:48.936Z,73.61
2023-03-28T18:39:32.438Z,73.59
2023-03-28T18:41:58.744Z,73.69
2023-03-28T18:43:09.219Z,72.86
2023-03-28T18:45:34.936Z,73.14
2023-03-28T18:47:59.899Z,73.91
2023-03-28T18:49:09.078Z,73.49
2023-03-28T18:51:37.259Z,73.01
2023-03-28T18:54:02.057Z,72.85
2023-03-28T18:56:27.850Z,72.55
2023-03-28T18:57:38.079Z,72.36
2023-03-28T18:58:49.610Z,72.90
2023-03-28T18:59:59.222Z,72.46
2023-03-28T19:02:27.787Z,70.98
2023-03-28T19:03:41.105Z,71.22
2023-03-28T19:04:51.390Z,71.08
2023-03-28T19:06:01.987Z,71.15
2023-03-28T19:08:30.589Z,70.75
2023-03-28T19:09:40.074Z,69.81
2023-03-28T19:12:04.576Z,70.51
2023-03-28T19:13:14.145Z,69.60
2023-03-28T19:14:22.992Z,69.36
2023-03-28T19:15:32.293Z,70.32
2023-03-28T19:16:41.253Z,70.92
2023-03-28T19:19:06.532Z,72.13
2023-03-28T19:20:16.531Z,71.95
2023-03-28T19:21:26.203Z,71.45
2023-03-28T19:22:35.262Z,71.12
2023-03-28T19:25:01.739Z,70.42
2023-03-28T19:27:27.824Z,70.68
2023-03-28T19:28:38.724Z,70.98
2023-03-28T19:31:07.154Z,69.76
2023-03-28T19:33:33.236Z,70.38
2023-03-28T19:34:42.335Z,70.16
2023-03-28T19:37:06.634Z,70.43
2023-03-28T19:38:16.029Z,70.17
2023-03-28T19:40:41.454Z,70.18
2023-03-28T19:43:05.407Z,69.94
2023-03-28T19:45:30.642Z,69.68
2023-03-28T19:47:56.823Z,69.72
2023-03-28T19:50:22.126Z,70.92
2023-03-28T19:52:51.024Z,71.47
2023-03-28T19:54:01.038Z,71.40
2023-03-28T19:55:11.313Z,71.10
2023-03-28T19:57:37.779Z,70.72
2023-03-28T20:00:04.645Z,70.09
2023-03-28T20:02:31.503Z,68.80
2023-03-28T20:03:40.802Z,68.15
2023-03-28T20:06:09.035Z,68.85
2023-03-28T20:08:36.613Z,67.71
2023-03-28T20:11:10.962Z,69.46
2023-03-28T20:13:35.705Z,70.63
2023-03-28T20:14:45.798Z,70.50
2023-03-28T20:17:13.185Z,70.38
2023-03-28T20:18:24.724Z,70.51
2023-03-28T20:20:51.599Z,69.66
2023-03-28T20:22:00.782Z,69.86
2023-03-28T20:24:27.288Z,69.83
2023-03-28T20:26:52.925Z,69.22
2023-03-28T20:29:19.445Z,70.19
2023-03-28T20:31:47.363Z,70.65
2023-03-28T20:32:57.889Z,69.99
2023-03-28T20:34:07.366Z,70.34
2023-03-28T20:36:32.471Z,69.98
2023-03-28T20:38:56.360Z,70.17
2023-03-28T20:41:24.295Z,69.57
2023-03-28T20:42:34.073Z,69.74
2023-03-28T20:43:51.576Z,69.98
2023-03-28T20:46:21.074Z,69.22
2023-03-28T20:48:46.901Z,69.31
2023-03-28T20:49:58.434Z,69.42
2023-03-28T20:51:21.445Z,69.43
2023-03-28T20:53:53.099Z,69.83
2023-03-28T20:56:20.386Z,70.67
2023-03-28T20:58:48.615Z,71.42
2023-03-28T21:01:15.852Z,71.30
2023-03-28T21:02:25.931Z,70.57
2023-03-28T21:05:08.151Z,68.95
2023-03-28T21:07:36.442Z,69.01
2023-03-28T21:08:47.626Z,69.18
2023-03-28T21:12:32.417Z,68.88
2023-03-28T21:13:41.139Z,69.23
2023-03-28T21:16:08.095Z,68.69
2023-03-28T21:18:36.470Z,69.89
2023-03-28T21:19:46.725Z,70.71
2023-03-28T21:20:56.625Z,70.26
2023-03-28T21:22:05.653Z,70.09
2023-03-28T21:24:32.347Z,70.31
2023-03-28T21:26:56.311Z,69.07
2023-03-28T21:29:21.788Z,68.55
2023-03-28T21:31:46.647Z,68.00
2023-03-28T21:34:12.960Z,67.50
2023-03-28T21:36:37.371Z,68.20
2023-03-28T21:37:46.769Z,67.73
2023-03-28T21:40:19.142Z,67.85
2023-03-28T21:41:29.018Z,67.89
2023-03-28T21:42:38.647Z,67.38
2023-03-28T21:43:49.821Z,68.49
2023-03-28T21:46:15.806Z,68.02
2023-03-28T21:48:39.340Z,68.82
2023-03-28T21:49:50.159Z,68.68
2023-03-28T21:52:19.243Z,68.70
2023-03-28T21:54:47.043Z,69.36
2023-03-28T21:57:12.333Z,68.70
2023-03-28T21:58:23.772Z,68.81
2023-03-28T22:00:49.007Z,68.86
2023-03-28T22:03:13.504Z,68.58
2023-03-28T22:05:42.992Z,68.62
2023-03-28T22:08:10.124Z,68.68
2023-03-28T22:10:38.001Z,68.46
2023-03-28T22:13:06.142Z,68.92
2023-03-28T22:15:33.570Z,68.86
2023-03-28T22:16:46.342Z,68.73
2023-03-28T22:17:57.361Z,68.71
2023-03-28T22:19:11.040Z,68.65
2023-03-28T22:21:38.307Z,68.43
2023-03-28T22:24:06.237Z,68.92
2023-03-28T22:25:16.496Z,68.73
2023-03-28T22:26:28.037Z,68.91
2023-03-28T22:28:59.018Z,68.74
2023-03-28T22:30:12.854Z,68.81
2023-03-28T22:31:23.291Z,68.52
2023-03-28T22:33:47.978Z,68.26
2023-03-28T22:36:12.506Z,67.88
2023-03-28T22:37:22.446Z,67.97
2023-03-28T22:38:31.475Z,67.95
2023-03-28T22:42:47.083Z,68.08
2023-03-28T22:43:56.028Z,67.96
2023-03-28T22:46:23.536Z,68.30
2023-03-28T22:47:34.766Z,68.22
2023-03-28T22:48:44.963Z,68.13
2023-03-28T22:49:56.559Z,68.28
2023-03-28T22:52:30.066Z,67.98
2023-03-28T22:53:40.669Z,67.91
2023-03-28T22:54:53.015Z,67.86
2023-03-28T22:57:17.006Z,67.94
2023-03-28T22:59:42.296Z,67.87
2023-03-28T23:02:08.549Z,68.13
2023-03-28T23:04:36.191Z,67.02
2023-03-28T23:07:01.353Z,67.54
2023-03-28T23:09:27.834Z,67.69
2023-03-28T23:10:37.663Z,67.52
2023-03-28T23:13:03.528Z,68.10
2023-03-28T23:14:13.418Z,68.03
2023-03-28T23:15:24.032Z,67.98
2023-03-28T23:16:33.929Z,68.13
2023-03-28T23:19:02.253Z,67.69
2023-03-28T23:20:15.816Z,67.92
2023-03-28T23:22:46.936Z,68.09
2023-03-28T23:23:56.265Z,68.13
2023-03-28T23:26:44.305Z,68.25
2023-03-28T23:27:53.864Z,67.95
2023-03-28T23:29:05.014Z,67.77
2023-03-28T23:30:16.303Z,67.85
2023-03-28T23:32:42.182Z,68.33
2023-03-28T23:33:53.118Z,68.25
2023-03-28T23:36:20.802Z,67.83
2023-03-28T23:38:47.564Z,68.00
2023-03-28T23:39:57.681Z,68.07
2023-03-28T23:42:24.680Z,67.33
2023-03-28T23:44:51.684Z,67.00
2023-03-28T23:47:17.683Z,67.20
2023-03-28T23:49:43.532Z,66.97
2023-03-28T23:52:12.411Z,67.01
2023-03-28T23:54:37.835Z,67.19
2023-03-28T23:55:47.040Z,67.46
2023-03-28T23:58:13.810Z,66.93
